Time;durP1;ratioP1;P1;durP2;ratioP2;P2;SDS_P1;SDS_P2;PMS_P1;PMS_P2;Temp;Humidity;BMP_temperature;BMP_pressure;BME280_temperature;BME280_humidity;BME280_pressure;Samples;Min_cycle;Max_cycle;Signal;HPM_P1;HPM_P2
2022/06/18 00:01:49;;;;;;;0.73;0.60;;;;;;;27.67;37.74;99532.56;5103802;28;20112;-58
2022/06/18 00:04:17;;;;;;;1.35;0.70;;;;;;;27.67;37.39;99531.75;5114334;27;20154;-57
2022/06/18 00:06:58;;;;;;;1.63;0.80;;;;;;;27.66;37.33;99536.56;5105019;27;20070;-57
2022/06/18 00:09:30;;;;;;;1.00;0.70;;;;;;;27.66;37.43;99530.16;5108874;28;20040;-57
2022/06/18 00:15:06;;;;;;;0.70;0.60;;;;;;;27.65;37.51;99537.00;5106557;28;20099;-56
2022/06/18 00:17:32;;;;;;;0.75;0.68;;;;;;;27.64;37.51;99532.56;5110709;27;20051;-57
2022/06/18 00:19:57;;;;;;;1.23;0.73;;;;;;;27.65;37.51;99534.19;5109446;28;20129;-57
2022/06/18 00:22:23;;;;;;;1.60;0.70;;;;;;;27.66;37.35;99530.16;5111013;28;20522;-57
2022/06/18 00:24:50;;;;;;;0.95;0.70;;;;;;;27.65;37.44;99537.00;5108594;28;20063;-57
2022/06/18 00:27:17;;;;;;;0.68;0.60;;;;;;;27.62;37.51;99526.56;5110766;28;20480;-57
2022/06/18 00:29:44;;;;;;;0.95;0.68;;;;;;;27.63;37.49;99528.16;5112861;27;20035;-57
2022/06/18 00:32:10;;;;;;;0.82;0.63;;;;;;;27.65;37.53;99531.38;5110395;28;20093;-57
2022/06/18 00:34:35;;;;;;;0.95;0.70;;;;;;;27.63;37.58;99525.34;5106762;27;20048;-57
2022/06/18 00:37:03;;;;;;;0.80;0.70;;;;;;;27.64;37.56;99527.75;5103776;27;20048;-60
2022/06/18 00:39:29;;;;;;;0.93;0.65;;;;;;;27.64;37.65;99527.75;5110123;27;20051;-56
2022/06/18 00:41:55;;;;;;;1.17;0.80;;;;;;;27.63;37.61;99523.34;5103420;27;20077;-57
2022/06/18 00:44:38;;;;;;;1.00;0.70;;;;;;;27.65;37.87;99534.19;5107247;27;20042;-57
2022/06/18 00:47:06;;;;;;;;;;;;;;;27.66;37.81;99530.16;5115794;27;20071;-57
2022/06/18 00:49:48;;;;;;;0.70;0.63;;;;;;;27.64;38.08;99538.19;5096817;27;19987;-57
2022/06/18 00:52:23;;;;;;;1.25;0.80;;;;;;;27.62;38.24;99532.19;5105763;28;20135;-57
2022/06/18 00:54:57;;;;;;;0.95;0.68;;;;;;;27.61;38.06;99528.59;5104108;28;20134;-57
2022/06/18 00:57:40;;;;;;;0.98;0.70;;;;;;;27.61;38.55;99539.03;5110773;28;20047;-56
2022/06/18 01:00:09;;;;;;;;;;;;;;;27.64;38.32;99532.56;5084666;28;20036;-57
2022/06/18 01:02:38;;;;;;;1.38;0.82;;;;;;;27.64;38.27;99532.56;5108934;27;19916;-57
2022/06/18 01:05:32;;;;;;;1.52;0.90;;;;;;;27.62;38.60;99533.00;5107417;28;20067;-56
2022/06/18 01:08:01;;;;;;;0.90;0.70;;;;;;;27.59;38.60;99535.84;5108069;27;20048;-57
2022/06/18 01:10:35;;;;;;;1.70;0.90;;;;;;;27.60;38.66;99523.41;5104499;28;20083;-57
2022/06/18 01:13:08;;;;;;;1.63;0.80;;;;;;;27.60;38.54;99520.59;5110713;28;20047;-57
2022/06/18 01:15:34;;;;;;;1.10;0.85;;;;;;;27.59;38.79;99514.16;5107484;28;20051;-57
2022/06/18 01:18:01;;;;;;;1.15;0.90;;;;;;;27.58;38.59;99518.19;5121332;28;20040;-57
2022/06/18 01:20:27;;;;;;;1.45;0.90;;;;;;;27.58;38.66;99514.59;5110306;27;20052;-57
2022/06/18 01:23:06;;;;;;;1.20;0.80;;;;;;;27.57;38.59;99515.78;5109802;28;20445;-57
2022/06/18 01:25:32;;;;;;;1.17;0.80;;;;;;;27.55;38.65;99512.59;5103461;28;20128;-58
2022/06/18 01:27:59;;;;;;;1.17;0.80;;;;;;;27.56;38.55;99509.38;5107794;27;20444;-58
2022/06/18 01:30:31;;;;;;;1.10;0.80;;;;;;;27.55;38.63;99507.78;5109838;27;20039;-57
2022/06/18 01:32:57;;;;;;;2.35;0.98;;;;;;;27.58;38.61;99508.97;5103998;28;20036;-58
2022/06/18 01:35:23;;;;;;;1.35;0.80;;;;;;;27.58;38.56;99500.56;5103377;27;20058;-57
2022/06/18 01:37:49;;;;;;;1.10;0.80;;;;;;;27.61;38.40;99499.69;5115035;27;20043;-57
2022/06/18 01:40:42;;;;;;;1.20;0.80;;;;;;;27.59;38.41;99493.72;5109496;28;20054;-57
2022/06/18 01:43:12;;;;;;;1.20;0.80;;;;;;;27.59;38.58;99490.91;5088432;28;20160;-57
2022/06/18 01:45:39;;;;;;;1.13;0.70;;;;;;;27.55;38.33;99490.94;5098467;28;20511;-57
2022/06/18 01:48:19;;;;;;;0.85;0.70;;;;;;;27.55;38.45;99493.72;5109884;28;20042;-57
2022/06/18 01:51:19;;;;;;;0.95;0.70;;;;;;;27.57;38.48;99501.75;5113842;28;20383;-57
2022/06/18 01:53:49;;;;;;;1.02;0.70;;;;;;;27.55;38.58;99495.75;5092221;28;20051;-57
2022/06/18 01:56:22;;;;;;;1.40;0.82;;;;;;;27.58;38.12;99492.13;5099345;27;20047;-59
2022/06/18 01:59:07;;;;;;;1.13;0.80;;;;;;;27.57;38.22;99493.31;5109688;27;20066;-58
2022/06/18 02:01:38;;;;;;;1.00;0.73;;;;;;;27.56;38.49;99495.31;5109148;27;20046;-59
2022/06/18 02:04:04;;;;;;;1.00;0.80;;;;;;;27.57;38.42;99493.31;5103816;28;20082;-58
2022/06/18 02:06:32;;;;;;;1.00;0.70;;;;;;;27.57;38.61;99487.69;5105995;28;20570;-59
2022/06/18 02:09:01;;;;;;;1.58;1.00;;;;;;;27.55;38.66;99496.53;5106914;28;20079;-56
2022/06/18 02:11:27;;;;;;;1.67;0.80;;;;;;;27.55;38.77;99490.13;5096877;28;20054;-57
2022/06/18 02:14:01;;;;;;;1.00;0.70;;;;;;;27.55;38.72;99502.16;5099966;28;20048;-57
2022/06/18 02:16:30;;;;;;;0.98;0.70;;;;;;;27.57;38.83;99498.94;5078673;28;20474;-57
2022/06/18 02:18:59;;;;;;;1.20;0.82;;;;;;;27.57;38.72;99502.53;5103371;28;20047;-58
2022/06/18 02:21:25;;;;;;;1.33;0.80;;;;;;;27.55;38.77;99502.16;5104428;28;20073;-58
2022/06/18 02:23:51;;;;;;;1.42;0.90;;;;;;;27.55;38.80;99504.19;5108572;28;20071;-58
2022/06/18 02:26:18;;;;;;;1.30;0.90;;;;;;;27.53;38.81;99506.63;5109304;28;20089;-58
2022/06/18 02:28:45;;;;;;;1.40;0.90;;;;;;;27.52;38.79;99508.63;5095328;28;20054;-58
2022/06/18 02:31:24;;;;;;;1.30;0.88;;;;;;;27.50;38.91;99494.19;5107949;28;20095;-58
2022/06/18 02:33:54;;;;;;;1.80;0.75;;;;;;;27.53;38.60;99506.63;5103402;28;20146;-58
2022/06/18 02:36:29;;;;;;;1.30;0.80;;;;;;;27.53;38.91;99506.63;5084792;28;20040;-57
2022/06/18 02:39:13;;;;;;;1.38;0.80;;;;;;;27.53;38.81;99509.44;5086407;28;20072;-58
2022/06/18 02:41:40;;;;;;;1.10;0.70;;;;;;;27.51;38.88;99515.47;5085119;28;20059;-58
2022/06/18 02:44:07;;;;;;;1.20;0.80;;;;;;;27.51;38.85;99509.84;5086005;28;20106;-58
2022/06/18 02:46:33;;;;;;;0.77;0.68;;;;;;;27.53;38.76;99515.03;5091674;28;20040;-58
2022/06/18 02:49:02;;;;;;;1.00;0.70;;;;;;;27.51;38.63;99512.66;5088801;28;20033;-58
2022/06/18 02:51:30;;;;;;;1.15;0.85;;;;;;;27.51;38.69;99515.47;5094125;28;20044;-58
2022/06/18 02:53:56;;;;;;;1.30;0.90;;;;;;;27.51;39.02;99518.28;5108932;28;20051;-58
2022/06/18 02:56:22;;;;;;;1.52;0.98;;;;;;;27.51;38.90;99517.47;5115664;28;20499;-58
2022/06/18 02:58:49;;;;;;;1.30;0.90;;;;;;;27.51;38.90;99514.69;5091301;28;20055;-58
2022/06/18 03:01:20;;;;;;;1.00;0.80;;;;;;;27.51;38.95;99509.06;5089516;28;20075;-57
2022/06/18 03:03:49;;;;;;;2.25;1.20;;;;;;;27.49;38.91;99508.66;5105436;28;20035;-57
2022/06/18 03:06:18;;;;;;;1.55;1.13;;;;;;;27.49;38.99;99517.09;5095190;28;20044;-57
2022/06/18 03:08:46;;;;;;;1.95;1.30;;;;;;;27.49;39.07;99519.91;5086710;28;20138;-58
2022/06/18 03:13:58;;;;;;;2.35;1.65;;;;;;;27.49;39.17;99526.31;5087623;28;20051;-57
2022/06/18 03:16:23;;;;;;;3.15;2.35;;;;;;;27.49;38.95;99531.94;5102791;28;20035;-57
2022/06/18 03:18:52;;;;;;;3.00;2.30;;;;;;;27.48;38.87;99530.34;5108977;28;20411;-57
2022/06/18 03:21:31;;;;;;;3.53;2.08;;;;;;;27.47;39.20;99520.31;5108046;28;20063;-58
2022/06/18 03:23:56;;;;;;;3.35;2.25;;;;;;;27.46;38.89;99524.34;5109663;28;20142;-57
2022/06/18 03:26:23;;;;;;;3.03;2.30;;;;;;;27.47;38.99;99525.94;5118410;28;20024;-57
2022/06/18 03:28:49;;;;;;;2.83;2.00;;;;;;;27.47;39.31;99525.16;5112233;28;20396;-57
2022/06/18 03:31:14;;;;;;;3.15;2.00;;;;;;;27.48;39.11;99526.72;5111560;28;20044;-57
2022/06/18 03:33:41;;;;;;;2.63;1.83;;;;;;;27.48;39.03;99524.72;5111585;28;20080;-57
2022/06/18 03:36:08;;;;;;;2.58;1.70;;;;;;;27.48;39.10;99530.34;5107229;28;20856;-57
2022/06/18 03:38:34;;;;;;;2.83;1.90;;;;;;;27.48;38.87;99530.34;5111415;28;20043;-57
2022/06/18 03:40:59;;;;;;;2.40;1.73;;;;;;;27.48;39.14;99535.97;5111501;28;20407;-58
2022/06/18 03:43:26;;;;;;;2.28;1.77;;;;;;;27.48;38.86;99535.97;5111377;28;20039;-58
2022/06/18 03:45:56;;;;;;;2.63;1.77;;;;;;;27.48;39.01;99529.53;5111029;28;20051;-58
2022/06/18 03:48:53;;;;;;;2.38;1.70;;;;;;;27.47;39.11;99527.94;5105236;28;20119;-58
2022/06/18 03:51:19;;;;;;;2.78;1.80;;;;;;;27.49;38.91;99531.94;5100826;28;20048;-58
2022/06/18 03:53:45;;;;;;;2.45;1.63;;;;;;;27.47;39.26;99536.38;5113351;28;20066;-58
2022/06/18 03:56:13;;;;;;;2.30;1.50;;;;;;;27.45;39.08;99538.81;5109501;28;20562;-58
2022/06/18 03:58:39;;;;;;;2.35;1.60;;;;;;;27.46;39.37;99540.41;5111544;28;20953;-57
2022/06/18 04:01:05;;;;;;;2.85;1.70;;;;;;;27.44;39.24;99538.03;5111526;28;20419;-58
2022/06/18 04:03:31;;;;;;;2.50;1.45;;;;;;;27.43;39.15;99539.22;5092430;28;20052;-57
2022/06/18 04:05:56;;;;;;;2.40;1.73;;;;;;;27.42;39.17;99538.41;5090621;28;20044;-56
2022/06/18 04:08:22;;;;;;;2.05;1.40;;;;;;;27.45;39.02;99544.44;5090775;28;20085;-58
2022/06/18 04:10:47;;;;;;;3.05;1.40;;;;;;;27.45;39.20;99539.63;5091005;28;20078;-58
2022/06/18 04:13:14;;;;;;;2.50;1.50;;;;;;;27.44;39.40;99549.25;5101269;28;20039;-57
2022/06/18 04:15:39;;;;;;;2.10;1.25;;;;;;;27.47;39.23;99544.81;5088790;28;20547;-57
2022/06/18 04:18:05;;;;;;;1.88;1.30;;;;;;;27.45;39.26;99544.44;5089916;28;20042;-57
2022/06/18 04:20:36;;;;;;;1.80;1.30;;;;;;;27.45;39.28;99544.44;5098009;28;20844;-56
2022/06/18 04:23:03;;;;;;;1.95;1.38;;;;;;;27.43;39.23;99547.63;5097790;28;20043;-57
2022/06/18 04:25:29;;;;;;;1.70;1.20;;;;;;;27.45;39.34;99548.03;5106353;28;20104;-56
2022/06/18 04:27:57;;;;;;;1.88;1.25;;;;;;;27.42;39.59;99543.25;5109518;28;20036;-57
2022/06/18 04:30:25;;;;;;;1.60;1.17;;;;;;;27.45;39.46;99552.88;5110465;28;20098;-57
2022/06/18 04:32:51;;;;;;;1.70;1.30;;;;;;;27.45;39.52;99544.44;5089000;28;20041;-57
2022/06/18 04:35:17;;;;;;;2.28;1.42;;;;;;;27.43;39.47;99544.84;5102879;28;20075;-57
2022/06/18 04:37:44;;;;;;;2.00;1.38;;;;;;;27.42;39.62;99540.44;5111904;28;20545;-57
2022/06/18 04:40:14;;;;;;;1.67;1.17;;;;;;;27.40;39.74;99537.25;5104592;28;20109;-57
2022/06/18 04:42:39;;;;;;;1.67;1.25;;;;;;;27.41;39.74;99531.22;5104102;28;20043;-57
2022/06/18 04:45:06;;;;;;;1.73;1.20;;;;;;;27.41;39.60;99530.41;5109660;28;20062;-56
2022/06/18 04:47:31;;;;;;;1.90;1.20;;;;;;;27.41;39.73;99531.22;5110423;28;20536;-56
2022/06/18 04:49:58;;;;;;;1.83;1.13;;;;;;;27.42;39.98;99520.78;5110298;28;20039;-57
2022/06/18 04:52:24;;;;;;;1.77;1.17;;;;;;;27.42;39.93;99524.38;5110676;28;20384;-56
2022/06/18 04:54:52;;;;;;;1.23;0.90;;;;;;;27.42;39.92;99518.75;5110368;28;20054;-56
2022/06/18 04:57:19;;;;;;;1.80;1.00;;;;;;;27.45;40.04;99527.59;5112985;28;20035;-56
2022/06/18 04:59:44;;;;;;;1.85;1.20;;;;;;;27.43;40.07;99526.00;5109420;28;20104;-57
2022/06/18 05:02:19;;;;;;;1.50;1.10;;;;;;;27.42;40.06;99521.56;5105367;28;20275;-57
2022/06/18 05:04:45;;;;;;;2.00;1.30;;;;;;;27.46;40.38;99526.38;5089917;28;20043;-57
2022/06/18 05:07:10;;;;;;;1.52;1.00;;;;;;;27.47;40.35;99522.34;5101020;28;20040;-57
2022/06/18 05:09:36;;;;;;;1.63;1.13;;;;;;;27.45;40.56;99514.34;5095211;28;20044;-57
2022/06/18 05:12:01;;;;;;;1.85;1.05;;;;;;;27.46;40.63;99507.50;5109023;28;20081;-57
2022/06/18 05:14:27;;;;;;;1.50;1.05;;;;;;;27.46;40.39;99512.31;5099829;28;20134;-58
2022/06/18 05:16:52;;;;;;;1.45;1.10;;;;;;;27.47;40.44;99511.88;5109759;28;20039;-58
2022/06/18 05:19:26;;;;;;;1.70;1.00;;;;;;;27.49;40.51;99512.25;5109552;28;20032;-58
2022/06/18 05:21:52;;;;;;;1.60;1.02;;;;;;;27.45;40.80;99503.09;5109032;28;20114;-58
2022/06/18 05:24:18;;;;;;;1.17;0.90;;;;;;;27.48;40.71;99507.06;5110780;28;20119;-58
2022/06/18 05:26:46;;;;;;;2.00;1.05;;;;;;;27.46;40.46;99498.28;5109747;28;20102;-57
2022/06/18 05:29:12;;;;;;;1.80;1.13;;;;;;;27.46;40.59;99501.88;5088906;28;20055;-57
2022/06/18 05:31:37;;;;;;;1.77;1.20;;;;;;;27.49;40.85;99503.84;5095283;28;20036;-57
2022/06/18 05:34:03;;;;;;;1.55;1.05;;;;;;;27.49;40.61;99508.66;5106952;28;20495;-57
2022/06/18 05:36:29;;;;;;;1.75;1.20;;;;;;;27.48;40.68;99498.63;5104539;28;20035;-58
2022/06/18 05:38:55;;;;;;;1.70;1.10;;;;;;;27.51;41.04;99500.63;5108394;28;20402;-58
2022/06/18 05:41:20;;;;;;;1.48;1.10;;;;;;;27.51;40.95;99507.03;5109369;28;20040;-59
2022/06/18 05:43:45;;;;;;;1.55;1.10;;;;;;;27.51;41.14;99497.81;5105098;28;20039;-56
2022/06/18 05:46:12;;;;;;;1.50;1.10;;;;;;;27.52;40.89;99508.63;5108972;28;20040;-56
2022/06/18 05:48:37;;;;;;;1.80;1.10;;;;;;;27.52;40.87;99514.25;5092732;28;20048;-57
2022/06/18 05:51:04;;;;;;;1.45;1.05;;;;;;;27.52;40.87;99507.84;5098228;28;20032;-58
2022/06/18 05:53:30;;;;;;;1.95;1.00;;;;;;;27.51;40.68;99512.66;5075326;28;20062;-58
2022/06/18 05:55:56;;;;;;;1.58;1.10;;;;;;;27.51;40.70;99509.84;5089172;28;20040;-60
2022/06/18 05:58:21;;;;;;;1.30;1.00;;;;;;;27.53;40.89;99517.84;5091155;28;20044;-58
2022/06/18 06:00:46;;;;;;;1.40;0.90;;;;;;;27.52;41.00;99513.47;5101060;28;20039;-58
2022/06/18 06:03:12;;;;;;;1.70;1.10;;;;;;;27.55;41.40;99513.41;5091107;28;20040;-58
2022/06/18 06:05:37;;;;;;;1.27;0.90;;;;;;;27.53;41.69;99504.59;5094081;28;20134;-58
2022/06/18 06:08:03;;;;;;;1.55;1.10;;;;;;;27.49;42.31;99509.44;5090097;28;20415;-59
2022/06/18 06:13:17;;;;;;;1.27;1.00;;;;;;;27.39;42.63;99516.78;5092795;28;20457;-58
2022/06/18 06:15:43;;;;;;;1.58;1.10;;;;;;;27.34;42.58;99519.25;5087948;28;20512;-58
2022/06/18 06:18:11;;;;;;;1.70;1.13;;;;;;;27.34;42.54;99519.25;5090854;28;20046;-59
2022/06/18 06:20:39;;;;;;;1.40;0.90;;;;;;;27.33;42.61;99512.84;5103746;28;20043;-58
2022/06/18 06:23:06;;;;;;;1.50;1.00;;;;;;;27.33;42.60;99514.84;5092865;28;20035;-59
2022/06/18 06:25:32;;;;;;;1.48;1.08;;;;;;;27.30;42.68;99519.31;5088997;28;20052;-58
2022/06/18 06:27:58;;;;;;;1.50;1.00;;;;;;;27.31;42.72;99520.91;5096666;28;20088;-58
2022/06/18 06:30:23;;;;;;;1.63;1.10;;;;;;;27.34;43.04;99514.44;5108644;28;20040;-58
2022/06/18 06:32:49;;;;;;;2.10;1.10;;;;;;;27.36;42.74;99523.25;5106901;28;20043;-58
2022/06/18 06:35:14;;;;;;;1.60;1.02;;;;;;;27.37;42.75;99519.22;5109417;28;20495;-58
2022/06/18 06:37:40;;;;;;;1.55;1.00;;;;;;;27.39;42.81;99513.97;5105716;28;20091;-58
2022/06/18 06:40:07;;;;;;;1.70;1.20;;;;;;;27.42;42.64;99509.53;5106829;28;20122;-58
2022/06/18 06:42:43;;;;;;;1.58;1.10;;;;;;;27.42;42.45;99503.91;5099281;28;20054;-58
2022/06/18 06:45:21;;;;;;;1.40;1.00;;;;;;;27.36;42.66;99506.41;5092640;28;20044;-58
2022/06/18 06:47:46;;;;;;;1.67;1.10;;;;;;;27.34;42.65;99499.59;5076879;28;20067;-56
2022/06/18 06:50:16;;;;;;;1.77;1.20;;;;;;;27.36;42.54;99514.84;5096047;28;20411;-56
2022/06/18 06:52:42;;;;;;;1.50;1.10;;;;;;;27.39;42.53;99508.38;5108763;28;20419;-57
2022/06/18 06:58:10;;;;;;;1.55;1.00;;;;;;;27.36;42.48;99511.19;5110577;28;20053;-60
2022/06/18 07:00:39;;;;;;;1.60;1.08;;;;;;;27.35;42.63;99507.59;5112251;28;20048;-58
2022/06/18 07:03:05;;;;;;;1.10;0.90;;;;;;;27.37;42.32;99504.38;5111964;28;20031;-58
2022/06/18 07:05:30;;;;;;;1.65;0.98;;;;;;;27.36;42.39;99506.41;5114201;28;20043;-59
2022/06/18 07:07:56;;;;;;;1.38;1.00;;;;;;;27.36;42.26;99497.16;5106455;28;20045;-58
2022/06/18 07:10:21;;;;;;;4.50;1.08;;;;;;;27.36;42.49;99495.16;5110520;28;20096;-58
2022/06/18 07:12:47;;;;;;;1.55;1.00;;;;;;;27.38;42.38;99495.53;5110988;28;20529;-57
2022/06/18 07:15:13;;;;;;;1.23;0.90;;;;;;;27.34;42.53;99489.16;5112298;28;20048;-58
2022/06/18 07:17:40;;;;;;;1.65;1.10;;;;;;;27.40;42.61;99492.31;5105982;28;20400;-58
2022/06/18 07:20:09;;;;;;;1.40;1.00;;;;;;;27.41;42.37;99489.06;5089335;28;20476;-59
2022/06/18 07:22:34;;;;;;;1.40;0.95;;;;;;;27.41;42.44;99491.88;5093242;28;20036;-58
2022/06/18 07:25:00;;;;;;;1.30;0.90;;;;;;;27.39;42.48;99491.50;5095558;28;20130;-58
2022/06/18 07:27:28;;;;;;;1.20;1.00;;;;;;;27.42;42.32;99487.84;5096051;28;20131;-58
2022/06/18 07:29:57;;;;;;;1.38;0.90;;;;;;;27.41;42.25;99480.66;5097004;28;20325;-58
2022/06/18 07:32:22;;;;;;;1.45;1.00;;;;;;;27.41;42.15;99480.66;5107016;28;20070;-56
2022/06/18 07:34:48;;;;;;;1.73;1.13;;;;;;;27.38;42.57;99487.13;5118747;28;20079;-57
2022/06/18 07:37:13;;;;;;;1.75;1.10;;;;;;;27.41;42.36;99485.47;5111884;28;20045;-57
2022/06/18 07:39:39;;;;;;;1.25;0.90;;;;;;;27.45;42.42;99491.06;5111466;28;20411;-58
2022/06/18 07:42:05;;;;;;;1.50;1.02;;;;;;;27.46;42.11;99476.59;5111928;28;20043;-58
2022/06/18 07:44:31;;;;;;;1.65;1.17;;;;;;;27.50;42.21;99474.53;5084248;28;20044;-57
2022/06/18 07:47:03;;;;;;;1.67;1.17;;;;;;;27.48;42.23;99470.53;5113150;28;20039;-58
2022/06/18 07:49:30;;;;;;;1.73;1.05;;;;;;;27.48;42.16;99470.53;5111425;28;20430;-58
2022/06/18 07:51:55;;;;;;;1.30;1.00;;;;;;;27.42;42.13;99468.19;5110603;28;20054;-58
2022/06/18 07:54:22;;;;;;;1.23;0.90;;;;;;;27.41;41.82;99463.78;5119287;28;20043;-56
2022/06/18 07:56:47;;;;;;;1.63;1.25;;;;;;;27.40;41.78;99467.03;5109726;28;20040;-57
2022/06/18 07:59:13;;;;;;;1.98;1.25;;;;;;;27.42;41.63;99461.78;5097680;28;20047;-57
2022/06/18 08:01:39;;;;;;;1.40;1.00;;;;;;;27.41;41.93;99457.38;5103198;28;20063;-57
2022/06/18 08:04:06;;;;;;;1.30;0.90;;;;;;;27.40;41.92;99445.34;5111344;28;20103;-58
2022/06/18 08:06:31;;;;;;;1.20;1.00;;;;;;;27.45;41.80;99452.53;5093741;28;20059;-58
2022/06/18 08:08:56;;;;;;;1.55;1.10;;;;;;;27.49;41.86;99458.09;5073621;28;20075;-58
2022/06/18 08:11:25;;;;;;;1.30;1.00;;;;;;;27.49;42.03;99452.47;5090262;28;20040;-58
2022/06/18 08:13:51;;;;;;;1.10;0.85;;;;;;;27.49;41.84;99452.47;5092101;28;20130;-57
2022/06/18 08:16:17;;;;;;;1.52;1.10;;;;;;;27.47;41.93;99446.47;5080811;28;20032;-58
2022/06/18 08:18:43;;;;;;;1.48;0.90;;;;;;;27.46;42.03;99436.47;5090192;28;20042;-58
2022/06/18 08:21:24;;;;;;;1.77;1.20;;;;;;;27.47;42.02;99441.66;5085923;28;20040;-59
2022/06/18 08:23:53;;;;;;;1.33;0.93;;;;;;;27.51;41.74;99433.19;5090036;28;20044;-58
2022/06/18 08:26:20;;;;;;;1.20;0.90;;;;;;;27.49;41.94;99430.00;5089305;28;20036;-58
2022/06/18 08:28:45;;;;;;;1.20;0.88;;;;;;;27.47;42.02;99421.19;5087080;28;20040;-58
2022/06/18 08:31:11;;;;;;;1.25;0.85;;;;;;;27.49;41.84;99430.78;5090686;28;20036;-58
2022/06/18 08:33:37;;;;;;;1.33;1.00;;;;;;;27.49;41.92;99415.94;5093109;28;20043;-58
2022/06/18 08:36:08;;;;;;;1.40;1.00;;;;;;;27.50;41.90;99420.34;5084077;28;20044;-58
2022/06/18 08:38:35;;;;;;;1.45;1.05;;;;;;;27.51;41.94;99416.34;5089252;28;20105;-58
2022/06/18 08:41:09;;;;;;;2.08;1.27;;;;;;;27.51;41.94;99407.91;5092404;28;20040;-58
2022/06/18 08:43:34;;;;;;;1.83;1.20;;;;;;;27.50;42.21;99409.09;5093544;28;20060;-57
2022/06/18 08:46:06;;;;;;;1.65;1.13;;;;;;;27.51;41.83;99419.16;5082185;28;20094;-56
2022/06/18 08:49:23;;;;;;;1.00;0.80;;;;;;;27.54;41.89;99409.88;5093613;28;20109;-58
2022/06/18 08:52:10;;;;;;;1.90;1.00;;;;;;;27.53;41.98;99406.25;5047051;28;20049;-59
2022/06/18 08:55:02;;;;;;;1.40;1.10;;;;;;;27.51;42.01;99405.09;5040576;28;20049;-58
2022/06/18 08:57:46;;;;;;;1.10;0.88;;;;;;;27.52;42.13;99401.88;5046565;28;20515;-58
2022/06/18 09:00:36;;;;;;;1.90;1.17;;;;;;;27.57;42.10;99401.38;5049449;28;20499;-58
2022/06/18 09:03:06;;;;;;;1.50;1.00;;;;;;;27.56;41.95;99402.59;5042316;28;20139;-58
2022/06/18 09:05:44;;;;;;;1.75;1.17;;;;;;;27.57;41.89;99398.56;5046417;28;20041;-58
2022/06/18 09:08:13;;;;;;;1.30;0.95;;;;;;;27.56;41.92;99396.19;5041715;28;20045;-59
2022/06/18 09:11:03;;;;;;;1.50;1.00;;;;;;;27.57;42.00;99390.13;5054317;28;20045;-57
2022/06/18 09:13:47;;;;;;;1.50;1.10;;;;;;;27.57;41.97;99386.53;5047350;28;20049;-58
2022/06/18 09:16:17;;;;;;;1.35;1.00;;;;;;;27.62;41.99;99380.44;5031344;28;20071;-58
2022/06/18 09:18:48;;;;;;;1.50;1.10;;;;;;;27.62;41.95;99381.25;5045479;28;20144;-58
2022/06/18 09:21:21;;;;;;;1.35;1.00;;;;;;;27.62;42.02;99374.84;5047976;28;20048;-57
2022/06/18 09:23:54;;;;;;;1.55;1.02;;;;;;;27.61;42.09;99376.84;5088692;28;20052;-58
2022/06/18 09:26:31;;;;;;;1.80;1.17;;;;;;;27.62;42.02;99366.41;5090517;28;20054;-58
2022/06/18 09:29:18;;;;;;;1.33;1.00;;;;;;;27.63;41.98;99371.59;5109649;28;20465;-58
2022/06/18 09:32:04;;;;;;;1.63;1.15;;;;;;;27.62;42.04;99372.81;5114895;28;20047;-58
2022/06/18 09:34:57;;;;;;;2.03;1.20;;;;;;;27.62;42.01;99364.38;5110004;28;20052;-58
2022/06/18 09:37:31;;;;;;;1.30;1.00;;;;;;;27.63;41.89;99356.75;5073976;28;20092;-57
2022/06/18 09:39:59;;;;;;;1.67;1.15;;;;;;;27.61;42.08;99354.38;5078948;28;20492;-57
2022/06/18 09:42:36;;;;;;;1.50;1.10;;;;;;;27.63;41.95;99351.13;5103137;28;20048;-57
2022/06/18 09:45:06;;;;;;;1.77;1.10;;;;;;;27.64;41.97;99347.09;5107443;28;20054;-58
2022/06/18 09:47:46;;;;;;;1.48;1.00;;;;;;;27.65;42.01;99343.09;5093796;28;20104;-58
2022/06/18 09:50:21;;;;;;;1.98;1.20;;;;;;;27.68;41.73;99353.50;5109645;28;20040;-57
2022/06/18 09:52:52;;;;;;;1.27;1.00;;;;;;;27.67;41.82;99343.47;5097035;28;20121;-58
2022/06/18 09:55:28;;;;;;;1.45;1.10;;;;;;;27.65;41.60;99340.28;5098534;28;20260;-57
2022/06/18 09:57:58;;;;;;;1.80;1.20;;;;;;;27.68;41.66;99328.22;5092246;28;20133;-57
2022/06/18 10:00:28;;;;;;;1.27;0.93;;;;;;;27.65;42.02;99331.84;5088534;28;20169;-57
2022/06/18 10:06:57;;;;;;;1.65;1.08;;;;;;;27.69;41.62;99322.16;5019371;28;20049;-58
2022/06/18 10:09:44;;;;;;;1.60;1.13;;;;;;;27.65;41.79;99315.78;5024398;28;20077;-58
2022/06/18 10:12:30;;;;;;;1.90;1.17;;;;;;;27.64;41.67;99316.97;5091443;28;20324;-57
2022/06/18 10:14:58;;;;;;;1.80;1.10;;;;;;;27.64;41.75;99311.34;5107676;28;20052;-58
2022/06/18 10:17:57;;;;;;;2.00;1.00;;;;;;;27.64;41.73;99302.94;5103680;28;20071;-58
2022/06/18 10:20:37;;;;;;;1.17;0.90;;;;;;;27.67;41.67;99298.50;5099464;28;20388;-57
2022/06/18 10:23:40;;;;;;;1.77;1.10;;;;;;;27.69;41.80;99294.06;5106468;27;20507;-58
2022/06/18 10:26:10;;;;;;;1.70;1.10;;;;;;;27.70;41.53;99281.59;5111230;27;20094;-58
2022/06/18 10:28:40;;;;;;;1.50;1.10;;;;;;;27.68;41.65;99286.06;5098333;27;20286;-57
2022/06/18 10:31:25;;;;;;;1.58;1.10;;;;;;;27.69;41.58;99270.78;5108894;27;20036;-57
2022/06/18 10:34:09;;;;;;;2.05;1.20;;;;;;;27.70;41.57;99269.56;5112500;27;20046;-57
2022/06/18 10:36:40;;;;;;;1.50;1.00;;;;;;;27.72;41.76;99272.75;5106438;28;20502;-58
2022/06/18 10:39:24;;;;;;;1.50;1.10;;;;;;;27.75;41.76;99259.84;5108777;27;20043;-58
2022/06/18 10:42:10;;;;;;;1.88;1.35;;;;;;;27.72;41.77;99255.91;5104017;27;20067;-58
2022/06/18 10:44:41;;;;;;;1.50;1.00;;;;;;;27.74;41.83;99250.63;5109698;27;20071;-58
2022/06/18 10:47:12;;;;;;;1.42;1.00;;;;;;;27.68;41.92;99246.72;5112005;27;20051;-58
2022/06/18 10:49:38;;;;;;;1.48;1.08;;;;;;;27.72;41.86;99247.47;5105602;27;20044;-58
2022/06/18 10:52:04;;;;;;;1.80;1.10;;;;;;;27.74;41.62;99239.41;5105601;28;20044;-58
2022/06/18 10:54:36;;;;;;;1.77;1.20;;;;;;;27.73;41.91;99237.03;5107372;28;20083;-58
2022/06/18 10:57:03;;;;;;;1.60;1.20;;;;;;;27.71;42.10;99234.59;5097009;27;20051;-58
2022/06/18 10:59:37;;;;;;;1.58;1.08;;;;;;;27.73;41.80;99229.38;5109410;27;20126;-58
2022/06/18 11:02:09;;;;;;;1.60;1.10;;;;;;;27.74;41.68;99222.53;5106698;27;20047;-58
2022/06/18 11:04:36;;;;;;;1.65;1.02;;;;;;;27.73;41.71;99220.94;5103754;28;20552;-58
2022/06/18 11:07:12;;;;;;;1.48;1.10;;;;;;;27.73;41.63;99212.53;5106288;28;20055;-58
2022/06/18 11:09:44;;;;;;;1.40;1.10;;;;;;;27.75;41.55;99212.88;5107410;28;20058;-58
2022/06/18 11:12:27;;;;;;;1.50;1.05;;;;;;;27.76;41.60;99208.03;5106712;28;20040;-58
2022/06/18 11:14:54;;;;;;;1.77;1.10;;;;;;;27.80;41.47;99197.56;5108672;28;20051;-57
2022/06/18 11:17:32;;;;;;;1.92;1.30;;;;;;;27.78;41.62;99194.34;5105759;27;20038;-58
2022/06/18 11:20:08;;;;;;;1.60;1.10;;;;;;;27.80;41.41;99189.91;5108298;27;20043;-58
2022/06/18 11:22:35;;;;;;;1.45;1.02;;;;;;;27.81;41.68;99183.06;5104612;27;20039;-58
2022/06/18 11:25:04;;;;;;;1.55;1.13;;;;;;;27.80;41.81;99175.84;5116139;28;20100;-58
2022/06/18 11:27:35;;;;;;;1.73;1.30;;;;;;;27.78;41.93;99171.88;5097257;27;20604;-57
2022/06/18 11:30:24;;;;;;;2.15;1.20;;;;;;;27.79;41.84;99167.84;5110123;27;20118;-57
2022/06/18 11:32:50;;;;;;;1.92;1.15;;;;;;;27.83;41.78;99163.75;5094415;27;20043;-56
2022/06/18 11:35:22;;;;;;;1.77;1.10;;;;;;;27.83;42.12;99154.53;5108324;27;20499;-57
2022/06/18 11:38:06;;;;;;;1.35;1.10;;;;;;;27.81;42.17;99142.91;5108351;27;20620;-57
2022/06/18 11:40:32;;;;;;;1.90;1.23;;;;;;;27.82;41.98;99139.69;5110455;28;20035;-57
2022/06/18 11:43:20;;;;;;;1.55;1.08;;;;;;;27.83;42.20;99146.88;5108224;27;20072;-57
2022/06/18 11:45:54;;;;;;;2.00;1.23;;;;;;;27.82;42.12;99136.88;5103773;28;20093;-57
2022/06/18 11:48:30;;;;;;;1.88;1.10;;;;;;;27.87;42.21;99133.56;5102781;27;20042;-57
2022/06/18 11:51:00;;;;;;;1.70;1.30;;;;;;;27.92;41.96;99135.06;5101678;27;20100;-57
2022/06/18 11:53:35;;;;;;;1.95;1.13;;;;;;;27.93;42.21;99134.66;5095331;28;20047;-59
2022/06/18 11:56:04;;;;;;;1.73;1.10;;;;;;;27.97;42.05;99124.13;5098485;28;20051;-63
2022/06/18 11:58:34;;;;;;;1.67;1.10;;;;;;;28.00;41.97;99118.84;5110506;27;20059;-57
2022/06/18 12:01:35;;;;;;;2.22;1.20;;;;;;;28.00;42.30;99116.03;5104238;27;20044;-67
2022/06/18 12:04:24;;;;;;;2.10;1.20;;;;;;;28.03;42.30;99110.38;5109626;27;20050;-56
2022/06/18 12:07:01;;;;;;;2.50;1.05;;;;;;;28.00;42.32;99107.59;5111278;27;20035;-58